createdAt,value
2023-08-14T00:03:36.303Z,45.67
2023-08-14T00:08:39.473Z,48.40
2023-08-14T00:13:54.252Z,45.78
2023-08-14T00:18:57.258Z,47.00
2023-08-14T00:24:00.230Z,46.13
2023-08-14T00:29:04.973Z,46.35
2023-08-14T00:34:07.880Z,45.22
2023-08-14T00:39:10.808Z,45.92
2023-08-14T00:44:15.441Z,45.78
2023-08-14T00:49:18.939Z,46.03
2023-08-14T00:54:21.904Z,45.35
2023-08-14T00:59:26.358Z,45.20
2023-08-14T01:04:29.284Z,44.97
2023-08-14T01:09:32.446Z,46.70
2023-08-14T01:14:37.494Z,44.10
2023-08-14T01:19:44.522Z,44.45
2023-08-14T01:24:54.920Z,44.10
2023-08-14T01:30:01.614Z,43.92
2023-08-14T01:35:05.515Z,44.58
2023-08-14T01:40:12.646Z,44.38
2023-08-14T01:45:20.515Z,44.97
2023-08-14T01:50:25.107Z,44.75
2023-08-14T01:55:28.066Z,45.20
2023-08-14T02:00:35.073Z,44.55
2023-08-14T02:05:38.048Z,44.50
2023-08-14T02:10:40.981Z,44.45
2023-08-14T02:15:47.952Z,44.65
2023-08-14T02:20:51.451Z,46.45
2023-08-14T02:25:56.834Z,44.35
2023-08-14T02:31:04.302Z,44.58
2023-08-14T02:36:07.754Z,45.90
2023-08-14T02:41:10.661Z,45.20
2023-08-14T02:46:14.974Z,44.33
2023-08-14T02:51:18.071Z,45.72
2023-08-14T02:56:20.991Z,44.85
2023-08-14T03:01:25.307Z,45.72
2023-08-14T03:06:30.866Z,44.72
2023-08-14T03:11:33.845Z,44.47
2023-08-14T03:16:38.163Z,44.88
2023-08-14T03:21:43.042Z,47.35
2023-08-14T03:26:46.253Z,46.38
2023-08-14T03:31:51.347Z,44.03
2023-08-14T03:36:54.808Z,46.67
2023-08-14T03:41:57.825Z,44.55
2023-08-14T03:47:02.445Z,44.63
2023-08-14T03:52:06.783Z,44.38
2023-08-14T03:57:09.993Z,45.80
2023-08-14T04:02:14.325Z,44.20
2023-08-14T04:07:17.267Z,44.70
2023-08-14T04:12:21.093Z,45.03
2023-08-14T04:17:25.456Z,44.55
2023-08-14T04:22:28.396Z,44.33
2023-08-14T04:27:32.457Z,44.60
2023-08-14T04:32:37.411Z,44.17
2023-08-14T04:37:40.421Z,43.70
2023-08-14T04:42:43.655Z,44.50
2023-08-14T04:47:48.022Z,44.17
2023-08-14T04:52:51.020Z,44.65
2023-08-14T04:57:55.776Z,44.17
2023-08-14T05:03:01.209Z,43.72
2023-08-14T05:08:04.620Z,44.88
2023-08-14T05:13:07.627Z,44.17
2023-08-14T05:18:11.910Z,43.95
2023-08-14T05:23:16.135Z,44.45
2023-08-14T05:28:19.118Z,44.70
2023-08-14T05:33:23.408Z,44.65
2023-08-14T05:38:26.649Z,43.92
2023-08-14T05:43:29.559Z,46.25
2023-08-14T05:48:33.941Z,46.03
2023-08-14T05:53:36.849Z,45.30
2023-08-14T05:58:39.826Z,44.90
2023-08-14T06:03:45.854Z,47.17
2023-08-14T06:08:48.977Z,45.60
2023-08-14T06:13:51.890Z,45.20
2023-08-14T06:18:56.173Z,45.78
2023-08-14T06:23:59.212Z,45.63
2023-08-14T06:29:02.199Z,45.80
2023-08-14T06:34:07.910Z,44.85
2023-08-14T06:39:11.658Z,44.70
2023-08-14T06:44:15.170Z,46.55
2023-08-14T06:49:19.405Z,44.92
2023-08-14T06:54:22.570Z,45.05
2023-08-14T06:59:25.646Z,45.17
2023-08-14T07:04:29.893Z,45.50
2023-08-14T07:09:32.788Z,45.42
2023-08-14T07:14:35.697Z,48.17
2023-08-14T07:19:39.941Z,45.83
2023-08-14T07:24:42.983Z,45.15
2023-08-14T07:29:46.043Z,48.00
2023-08-14T07:34:50.631Z,45.78
2023-08-14T07:39:54.834Z,45.22
2023-08-14T07:44:57.758Z,49.05
2023-08-14T07:50:02.131Z,45.17
2023-08-14T07:55:05.677Z,46.63
2023-08-14T08:00:10.873Z,45.90
2023-08-14T08:05:20.492Z,45.83
2023-08-14T08:10:23.648Z,45.88
2023-08-14T08:15:26.605Z,45.42
2023-08-14T08:20:31.351Z,46.72
2023-08-14T08:25:34.293Z,45.67
2023-08-14T08:30:37.495Z,46.25
2023-08-14T08:35:41.807Z,46.33
2023-08-14T08:40:48.825Z,46.80
2023-08-14T08:45:53.716Z,45.90
2023-08-14T08:50:59.406Z,46.33
2023-08-14T08:56:02.321Z,47.35
2023-08-14T09:01:06.805Z,46.47
2023-08-14T09:06:11.121Z,46.78
2023-08-14T09:11:14.071Z,47.60
2023-08-14T09:16:17.918Z,46.47
2023-08-14T09:21:22.438Z,46.60
2023-08-14T09:26:25.739Z,47.22
2023-08-14T09:31:35.371Z,46.67
2023-08-14T09:36:41.210Z,47.53
2023-08-14T09:41:48.459Z,47.60
2023-08-14T09:46:52.897Z,47.03
2023-08-14T09:51:58.616Z,46.83
2023-08-14T09:57:08.508Z,46.83
2023-08-14T10:02:17.230Z,47.90
2023-08-14T10:07:25.242Z,47.03
2023-08-14T10:12:30.860Z,46.90
2023-08-14T10:17:38.769Z,47.28
2023-08-14T10:22:43.836Z,47.03
2023-08-14T10:27:46.852Z,47.28
2023-08-14T10:32:49.980Z,47.30
2023-08-14T10:38:08.363Z,47.25
2023-08-14T10:43:13.022Z,47.53
2023-08-14T10:48:16.027Z,48.13
2023-08-14T10:53:20.310Z,47.95
2023-08-14T10:58:42.024Z,50.65
2023-08-14T11:04:04.538Z,47.85
2023-08-14T11:09:08.888Z,47.85
2023-08-14T11:14:12.138Z,47.75
2023-08-14T11:19:15.563Z,47.50
2023-08-14T11:24:19.841Z,48.25
2023-08-14T11:29:22.728Z,48.55
2023-08-14T11:34:26.391Z,48.38
2023-08-14T11:39:31.082Z,48.67
2023-08-14T11:44:35.040Z,48.80
2023-08-14T11:49:38.933Z,48.38
2023-08-14T11:54:45.882Z,48.17
2023-08-14T11:59:49.104Z,48.30
2023-08-14T12:04:54.692Z,48.72
2023-08-14T12:09:59.676Z,48.80
2023-08-14T12:15:02.982Z,48.80
2023-08-14T12:20:11.416Z,49.10
2023-08-14T12:25:20.222Z,48.72
2023-08-14T12:30:23.160Z,48.40
2023-08-14T12:35:26.231Z,48.33
2023-08-14T12:40:30.770Z,49.20
2023-08-14T12:45:33.707Z,48.88
2023-08-14T12:50:36.782Z,48.67
2023-08-14T12:55:41.443Z,48.97
2023-08-14T13:00:44.371Z,48.28
2023-08-14T13:05:47.520Z,49.22
2023-08-14T13:10:51.768Z,48.38
2023-08-14T13:15:54.776Z,48.50
2023-08-14T13:20:58.382Z,50.33
2023-08-14T13:26:02.907Z,48.25
2023-08-14T13:31:07.703Z,48.75
2023-08-14T13:36:10.818Z,48.10
2023-08-14T13:41:15.155Z,48.65
2023-08-14T13:46:18.119Z,50.17
2023-08-14T13:51:21.714Z,49.28
2023-08-14T13:56:26.299Z,48.90
2023-08-14T14:01:29.509Z,48.92
2023-08-14T14:06:32.567Z,49.47
2023-08-14T14:11:36.857Z,49.33
2023-08-14T14:16:53.517Z,49.00
2023-08-14T14:21:57.811Z,48.80
2023-08-14T14:27:02.952Z,48.97
2023-08-14T14:32:06.717Z,48.40
2023-08-14T14:37:09.716Z,49.13
2023-08-14T14:42:13.969Z,48.85
2023-08-14T14:47:17.070Z,48.70
2023-08-14T14:52:20.448Z,48.85
2023-08-14T14:57:24.806Z,48.88
2023-08-14T15:02:30.166Z,48.75
2023-08-14T15:07:33.450Z,49.40
2023-08-14T15:12:37.721Z,48.35
2023-08-14T15:17:44.354Z,49.05
2023-08-14T15:22:47.950Z,49.08
2023-08-14T15:27:52.383Z,49.25
2023-08-14T15:32:55.624Z,49.08
2023-08-14T15:37:58.552Z,48.60
2023-08-14T15:43:02.780Z,48.78
2023-08-14T15:48:06.410Z,49.67
2023-08-14T15:53:09.325Z,49.03
2023-08-14T15:58:13.626Z,49.63
2023-08-14T16:03:16.580Z,49.78
2023-08-14T16:08:19.452Z,49.50
2023-08-14T16:13:23.696Z,49.10
2023-08-14T16:18:26.863Z,49.75
2023-08-14T16:23:29.799Z,49.28
2023-08-14T16:28:34.081Z,48.85
2023-08-14T16:33:37.637Z,49.42
2023-08-14T16:38:40.576Z,49.20
2023-08-14T16:43:44.836Z,50.13
2023-08-14T16:48:48.296Z,49.60
2023-08-14T16:53:51.407Z,49.08
2023-08-14T16:58:55.723Z,49.90
2023-08-14T17:03:58.760Z,49.35
2023-08-14T17:09:02.781Z,49.90
2023-08-14T17:14:07.096Z,49.70
2023-08-14T17:19:10.041Z,50.38
2023-08-14T17:24:13.390Z,49.83
2023-08-14T17:29:17.677Z,52.17
2023-08-14T17:34:20.717Z,49.97
2023-08-14T17:39:23.703Z,49.83
2023-08-14T17:44:28.191Z,49.85
2023-08-14T17:49:31.176Z,50.78
2023-08-14T17:54:34.169Z,50.10
2023-08-14T17:59:38.455Z,49.35
2023-08-14T18:04:41.369Z,50.08
2023-08-14T18:09:44.299Z,49.75
2023-08-14T18:14:49.164Z,49.67
2023-08-14T18:19:52.274Z,50.33
2023-08-14T18:24:55.203Z,50.10
2023-08-14T18:29:59.505Z,49.95
2023-08-14T18:35:02.420Z,49.58
2023-08-14T18:40:06.176Z,49.60
2023-08-14T18:45:11.633Z,50.40
2023-08-14T18:50:14.904Z,48.88
2023-08-14T18:55:18.211Z,49.92
2023-08-14T19:00:22.571Z,49.55
2023-08-14T19:05:25.582Z,49.33
2023-08-14T19:10:28.500Z,49.42
2023-08-14T19:15:32.806Z,49.30
2023-08-14T19:20:35.744Z,50.65
2023-08-14T19:25:39.670Z,48.95
2023-08-14T19:30:45.167Z,49.72
2023-08-14T19:35:48.267Z,49.72
2023-08-14T19:40:51.203Z,48.88
2023-08-14T19:45:55.424Z,51.30
2023-08-14T19:50:58.780Z,49.47
2023-08-14T19:56:01.750Z,49.20
2023-08-14T20:01:06.053Z,48.63
2023-08-14T20:06:09.316Z,49.75
2023-08-14T20:11:12.312Z,48.60
2023-08-14T20:16:20.066Z,47.58
2023-08-14T20:21:25.139Z,48.35
2023-08-14T20:26:28.041Z,50.85
2023-08-14T20:31:32.359Z,48.65
2023-08-14T20:36:35.369Z,49.08
2023-08-14T20:41:38.279Z,49.47
2023-08-14T20:46:42.542Z,48.25
2023-08-14T20:51:45.573Z,49.50
2023-08-14T20:56:48.514Z,48.20
2023-08-14T21:01:53.136Z,47.42
2023-08-14T21:06:56.137Z,49.00
2023-08-14T21:11:59.044Z,49.30
2023-08-14T21:17:03.639Z,46.85
2023-08-14T21:22:06.745Z,47.60
2023-08-14T21:27:10.690Z,47.22
2023-08-14T21:32:14.973Z,47.30
2023-08-14T21:37:18.546Z,47.38
2023-08-14T21:42:21.618Z,47.65
2023-08-14T21:47:25.880Z,49.33
2023-08-14T21:52:28.812Z,48.00
2023-08-14T21:57:31.829Z,48.30
2023-08-14T22:02:36.246Z,48.38
2023-08-14T22:07:39.229Z,49.30
2023-08-14T22:12:45.616Z,47.95
2023-08-14T22:17:50.356Z,50.13
2023-08-14T22:22:53.361Z,47.63
2023-08-14T22:27:56.260Z,48.78
2023-08-14T22:33:01.180Z,52.35
2023-08-14T22:38:04.204Z,49.25
2023-08-14T22:43:07.113Z,51.00
2023-08-14T22:48:11.485Z,49.55
2023-08-14T22:53:14.438Z,49.00
2023-08-14T22:58:17.360Z,52.65
2023-08-14T23:03:21.598Z,49.92
2023-08-14T23:08:24.604Z,46.58
2023-08-14T23:13:27.498Z,48.13
2023-08-14T23:18:31.822Z,47.80
2023-08-14T23:23:34.814Z,47.38
2023-08-14T23:28:37.895Z,49.28
2023-08-14T23:33:42.139Z,49.45
2023-08-14T23:38:45.792Z,48.53
2023-08-14T23:43:48.743Z,47.10
2023-08-14T23:48:53.158Z,47.80
2023-08-14T23:53:56.141Z,47.53
2023-08-14T23:59:01.183Z,48.38
